sensor_id;sensor_type;location;lat;lon;timestamp;P1;durP1;ratioP1;P2;durP2;ratioP2
30874;SDS011;17581;43.222;27.924;2024-01-07T00:01:48;25.92;;;9.68;;
30874;SDS011;17581;43.222;27.924;2024-01-07T00:04:17;41.80;;;9.88;;
30874;SDS011;17581;43.222;27.924;2024-01-07T00:06:43;23.35;;;8.77;;
30874;SDS011;17581;43.222;27.924;2024-01-07T00:09:10;28.58;;;9.18;;
30874;SDS011;17581;43.222;27.924;2024-01-07T00:11:37;23.77;;;7.45;;
30874;SDS011;17581;43.222;27.924;2024-01-07T00:14:02;28.10;;;8.85;;
30874;SDS011;17581;43.222;27.924;2024-01-07T00:16:28;34.03;;;11.00;;
30874;SDS011;17581;43.222;27.924;2024-01-07T00:18:53;54.95;;;10.98;;
30874;SDS011;17581;43.222;27.924;2024-01-07T00:21:19;36.72;;;9.23;;
30874;SDS011;17581;43.222;27.924;2024-01-07T00:23:45;21.55;;;8.43;;
30874;SDS011;17581;43.222;27.924;2024-01-07T00:26:10;23.05;;;9.23;;
30874;SDS011;17581;43.222;27.924;2024-01-07T00:28:36;20.20;;;9.10;;
30874;SDS011;17581;43.222;27.924;2024-01-07T00:31:01;35.90;;;10.02;;
30874;SDS011;17581;43.222;27.924;2024-01-07T00:33:27;18.15;;;8.40;;
30874;SDS011;17581;43.222;27.924;2024-01-07T00:35:53;13.82;;;8.30;;
30874;SDS011;17581;43.222;27.924;2024-01-07T00:38:18;29.17;;;9.70;;
30874;SDS011;17581;43.222;27.924;2024-01-07T00:40:44;26.60;;;8.80;;
30874;SDS011;17581;43.222;27.924;2024-01-07T00:43:10;25.17;;;8.82;;
30874;SDS011;17581;43.222;27.924;2024-01-07T00:45:35;29.13;;;9.00;;
30874;SDS011;17581;43.222;27.924;2024-01-07T00:48:01;18.02;;;8.07;;
30874;SDS011;17581;43.222;27.924;2024-01-07T00:50:26;28.52;;;8.77;;
30874;SDS011;17581;43.222;27.924;2024-01-07T00:52:52;20.60;;;8.27;;
30874;SDS011;17581;43.222;27.924;2024-01-07T00:55:17;23.38;;;7.18;;
30874;SDS011;17581;43.222;27.924;2024-01-07T00:57:43;29.10;;;8.93;;
30874;SDS011;17581;43.222;27.924;2024-01-07T01:00:08;14.35;;;7.28;;
30874;SDS011;17581;43.222;27.924;2024-01-07T01:02:34;13.15;;;6.88;;
30874;SDS011;17581;43.222;27.924;2024-01-07T01:05:01;11.90;;;5.75;;
30874;SDS011;17581;43.222;27.924;2024-01-07T01:07:27;21.33;;;7.43;;
30874;SDS011;17581;43.222;27.924;2024-01-07T01:09:52;12.00;;;5.97;;
30874;SDS011;17581;43.222;27.924;2024-01-07T01:12:18;11.05;;;6.07;;
30874;SDS011;17581;43.222;27.924;2024-01-07T01:14:43;15.00;;;6.22;;
30874;SDS011;17581;43.222;27.924;2024-01-07T01:17:09;24.85;;;7.00;;
30874;SDS011;17581;43.222;27.924;2024-01-07T01:19:34;23.55;;;6.43;;
30874;SDS011;17581;43.222;27.924;2024-01-07T01:21:59;14.50;;;6.20;;
30874;SDS011;17581;43.222;27.924;2024-01-07T01:24:25;13.75;;;6.00;;
30874;SDS011;17581;43.222;27.924;2024-01-07T01:26:50;32.88;;;7.50;;
30874;SDS011;17581;43.222;27.924;2024-01-07T01:29:16;16.42;;;6.78;;
30874;SDS011;17581;43.222;27.924;2024-01-07T01:31:41;13.75;;;6.38;;
30874;SDS011;17581;43.222;27.924;2024-01-07T01:34:07;15.57;;;6.65;;
30874;SDS011;17581;43.222;27.924;2024-01-07T01:36:33;25.80;;;7.25;;
30874;SDS011;17581;43.222;27.924;2024-01-07T01:38:59;20.08;;;7.10;;
30874;SDS011;17581;43.222;27.924;2024-01-07T01:41:24;21.88;;;7.00;;
30874;SDS011;17581;43.222;27.924;2024-01-07T01:43:50;24.90;;;8.18;;
30874;SDS011;17581;43.222;27.924;2024-01-07T01:46:15;20.55;;;8.02;;
30874;SDS011;17581;43.222;27.924;2024-01-07T01:48:41;20.00;;;7.95;;
30874;SDS011;17581;43.222;27.924;2024-01-07T01:51:08;20.02;;;8.25;;
30874;SDS011;17581;43.222;27.924;2024-01-07T01:53:34;35.22;;;9.45;;
30874;SDS011;17581;43.222;27.924;2024-01-07T01:56:00;25.65;;;9.10;;
30874;SDS011;17581;43.222;27.924;2024-01-07T01:58:29;19.15;;;8.95;;
30874;SDS011;17581;43.222;27.924;2024-01-07T02:00:55;29.27;;;8.93;;
30874;SDS011;17581;43.222;27.924;2024-01-07T02:03:21;23.58;;;8.50;;
30874;SDS011;17581;43.222;27.924;2024-01-07T02:05:48;29.55;;;9.38;;
30874;SDS011;17581;43.222;27.924;2024-01-07T02:08:15;31.17;;;9.45;;
30874;SDS011;17581;43.222;27.924;2024-01-07T02:10:42;24.75;;;8.70;;
30874;SDS011;17581;43.222;27.924;2024-01-07T02:13:08;25.10;;;8.77;;
30874;SDS011;17581;43.222;27.924;2024-01-07T02:15:33;28.95;;;9.88;;
30874;SDS011;17581;43.222;27.924;2024-01-07T02:17:59;36.97;;;9.32;;
30874;SDS011;17581;43.222;27.924;2024-01-07T02:20:25;20.75;;;9.18;;
30874;SDS011;17581;43.222;27.924;2024-01-07T02:22:50;20.80;;;9.02;;
30874;SDS011;17581;43.222;27.924;2024-01-07T02:25:16;19.70;;;8.57;;
30874;SDS011;17581;43.222;27.924;2024-01-07T02:27:42;20.98;;;8.32;;
30874;SDS011;17581;43.222;27.924;2024-01-07T02:30:07;20.00;;;9.10;;
30874;SDS011;17581;43.222;27.924;2024-01-07T02:32:33;19.70;;;8.93;;
30874;SDS011;17581;43.222;27.924;2024-01-07T02:35:01;15.10;;;8.15;;
30874;SDS011;17581;43.222;27.924;2024-01-07T02:37:26;32.28;;;9.00;;
30874;SDS011;17581;43.222;27.924;2024-01-07T02:39:52;12.80;;;7.22;;
30874;SDS011;17581;43.222;27.924;2024-01-07T02:42:17;31.23;;;7.90;;
30874;SDS011;17581;43.222;27.924;2024-01-07T02:44:43;28.75;;;8.10;;
30874;SDS011;17581;43.222;27.924;2024-01-07T02:47:08;19.73;;;7.35;;
30874;SDS011;17581;43.222;27.924;2024-01-07T02:49:34;32.47;;;9.18;;
30874;SDS011;17581;43.222;27.924;2024-01-07T02:51:59;16.38;;;7.97;;
30874;SDS011;17581;43.222;27.924;2024-01-07T02:54:25;20.65;;;7.13;;
30874;SDS011;17581;43.222;27.924;2024-01-07T02:56:50;22.83;;;7.75;;
30874;SDS011;17581;43.222;27.924;2024-01-07T02:59:16;19.73;;;7.93;;
30874;SDS011;17581;43.222;27.924;2024-01-07T03:01:41;23.70;;;8.05;;
30874;SDS011;17581;43.222;27.924;2024-01-07T03:04:10;31.73;;;8.70;;
30874;SDS011;17581;43.222;27.924;2024-01-07T03:06:38;17.67;;;7.53;;
30874;SDS011;17581;43.222;27.924;2024-01-07T03:09:04;25.10;;;8.10;;
30874;SDS011;17581;43.222;27.924;2024-01-07T03:11:29;23.55;;;7.82;;
30874;SDS011;17581;43.222;27.924;2024-01-07T03:13:55;25.65;;;7.75;;
30874;SDS011;17581;43.222;27.924;2024-01-07T03:16:22;18.80;;;8.18;;
30874;SDS011;17581;43.222;27.924;2024-01-07T03:18:48;19.95;;;8.27;;
30874;SDS011;17581;43.222;27.924;2024-01-07T03:21:17;20.50;;;8.55;;
30874;SDS011;17581;43.222;27.924;2024-01-07T03:23:43;19.63;;;7.63;;
30874;SDS011;17581;43.222;27.924;2024-01-07T03:26:09;20.25;;;8.55;;
30874;SDS011;17581;43.222;27.924;2024-01-07T03:28:35;25.52;;;8.75;;
30874;SDS011;17581;43.222;27.924;2024-01-07T03:31:03;25.98;;;7.93;;
30874;SDS011;17581;43.222;27.924;2024-01-07T03:33:30;16.40;;;7.03;;
30874;SDS011;17581;43.222;27.924;2024-01-07T03:35:56;20.05;;;8.20;;
30874;SDS011;17581;43.222;27.924;2024-01-07T03:38:21;26.55;;;8.70;;
30874;SDS011;17581;43.222;27.924;2024-01-07T03:40:47;17.77;;;9.18;;
30874;SDS011;17581;43.222;27.924;2024-01-07T03:43:12;20.45;;;9.02;;
30874;SDS011;17581;43.222;27.924;2024-01-07T03:45:38;19.02;;;9.35;;
30874;SDS011;17581;43.222;27.924;2024-01-07T03:48:03;16.63;;;8.10;;
30874;SDS011;17581;43.222;27.924;2024-01-07T03:50:29;33.13;;;9.80;;
30874;SDS011;17581;43.222;27.924;2024-01-07T03:52:54;24.30;;;9.75;;
30874;SDS011;17581;43.222;27.924;2024-01-07T03:55:20;22.73;;;9.75;;
30874;SDS011;17581;43.222;27.924;2024-01-07T03:57:45;31.27;;;10.60;;
30874;SDS011;17581;43.222;27.924;2024-01-07T04:00:11;22.05;;;7.85;;
30874;SDS011;17581;43.222;27.924;2024-01-07T04:02:37;22.27;;;8.35;;
30874;SDS011;17581;43.222;27.924;2024-01-07T04:05:03;22.83;;;8.05;;
30874;SDS011;17581;43.222;27.924;2024-01-07T04:07:28;40.95;;;10.50;;
30874;SDS011;17581;43.222;27.924;2024-01-07T04:09:54;26.85;;;10.75;;
30874;SDS011;17581;43.222;27.924;2024-01-07T04:12:19;29.83;;;9.23;;
30874;SDS011;17581;43.222;27.924;2024-01-07T04:14:45;24.42;;;8.75;;
30874;SDS011;17581;43.222;27.924;2024-01-07T04:17:10;16.05;;;7.70;;
30874;SDS011;17581;43.222;27.924;2024-01-07T04:19:36;22.60;;;7.80;;
30874;SDS011;17581;43.222;27.924;2024-01-07T04:22:03;16.45;;;8.20;;
30874;SDS011;17581;43.222;27.924;2024-01-07T04:24:28;26.35;;;10.18;;
30874;SDS011;17581;43.222;27.924;2024-01-07T04:26:54;42.65;;;9.23;;
30874;SDS011;17581;43.222;27.924;2024-01-07T04:29:19;18.27;;;8.15;;
30874;SDS011;17581;43.222;27.924;2024-01-07T04:31:45;43.42;;;9.60;;
30874;SDS011;17581;43.222;27.924;2024-01-07T04:34:10;33.67;;;11.63;;
30874;SDS011;17581;43.222;27.924;2024-01-07T04:36:36;48.40;;;12.82;;
30874;SDS011;17581;43.222;27.924;2024-01-07T04:39:01;25.63;;;11.25;;
30874;SDS011;17581;43.222;27.924;2024-01-07T04:41:27;24.67;;;9.35;;
30874;SDS011;17581;43.222;27.924;2024-01-07T04:43:52;30.38;;;9.77;;
30874;SDS011;17581;43.222;27.924;2024-01-07T04:46:18;27.88;;;10.02;;
30874;SDS011;17581;43.222;27.924;2024-01-07T04:48:43;28.38;;;9.77;;
30874;SDS011;17581;43.222;27.924;2024-01-07T04:51:09;21.67;;;8.73;;
30874;SDS011;17581;43.222;27.924;2024-01-07T04:53:35;22.88;;;8.98;;
30874;SDS011;17581;43.222;27.924;2024-01-07T04:56:01;41.03;;;13.75;;
30874;SDS011;17581;43.222;27.924;2024-01-07T04:58:27;28.27;;;11.85;;
30874;SDS011;17581;43.222;27.924;2024-01-07T05:00:52;62.55;;;20.80;;
30874;SDS011;17581;43.222;27.924;2024-01-07T05:03:18;34.60;;;10.57;;
30874;SDS011;17581;43.222;27.924;2024-01-07T05:05:43;22.35;;;8.98;;
30874;SDS011;17581;43.222;27.924;2024-01-07T05:08:09;25.90;;;9.27;;
30874;SDS011;17581;43.222;27.924;2024-01-07T05:10:34;18.33;;;8.70;;
30874;SDS011;17581;43.222;27.924;2024-01-07T05:13:00;32.28;;;9.25;;
30874;SDS011;17581;43.222;27.924;2024-01-07T05:15:30;24.92;;;8.85;;
30874;SDS011;17581;43.222;27.924;2024-01-07T05:17:55;20.05;;;9.10;;
30874;SDS011;17581;43.222;27.924;2024-01-07T05:20:21;41.50;;;10.25;;
30874;SDS011;17581;43.222;27.924;2024-01-07T05:22:46;29.88;;;9.75;;
30874;SDS011;17581;43.222;27.924;2024-01-07T05:25:12;29.75;;;11.15;;
30874;SDS011;17581;43.222;27.924;2024-01-07T05:27:37;33.28;;;9.73;;
30874;SDS011;17581;43.222;27.924;2024-01-07T05:30:03;35.15;;;9.40;;
30874;SDS011;17581;43.222;27.924;2024-01-07T05:32:29;32.42;;;9.15;;
30874;SDS011;17581;43.222;27.924;2024-01-07T05:34:54;30.08;;;11.98;;
30874;SDS011;17581;43.222;27.924;2024-01-07T05:37:20;28.25;;;10.07;;
30874;SDS011;17581;43.222;27.924;2024-01-07T05:39:45;30.23;;;9.55;;
30874;SDS011;17581;43.222;27.924;2024-01-07T05:42:12;46.15;;;11.82;;
30874;SDS011;17581;43.222;27.924;2024-01-07T05:44:37;22.77;;;10.30;;
30874;SDS011;17581;43.222;27.924;2024-01-07T05:47:03;39.20;;;13.45;;
30874;SDS011;17581;43.222;27.924;2024-01-07T05:49:29;28.42;;;10.27;;
30874;SDS011;17581;43.222;27.924;2024-01-07T05:51:54;42.15;;;12.32;;
30874;SDS011;17581;43.222;27.924;2024-01-07T05:54:20;23.38;;;10.23;;
30874;SDS011;17581;43.222;27.924;2024-01-07T05:56:45;23.65;;;9.52;;
30874;SDS011;17581;43.222;27.924;2024-01-07T05:59:11;22.77;;;9.68;;
30874;SDS011;17581;43.222;27.924;2024-01-07T06:01:36;47.67;;;11.32;;
30874;SDS011;17581;43.222;27.924;2024-01-07T06:04:02;35.40;;;11.65;;
30874;SDS011;17581;43.222;27.924;2024-01-07T06:06:27;29.38;;;10.38;;
30874;SDS011;17581;43.222;27.924;2024-01-07T06:08:53;22.88;;;9.80;;
30874;SDS011;17581;43.222;27.924;2024-01-07T06:11:19;23.98;;;8.82;;
30874;SDS011;17581;43.222;27.924;2024-01-07T06:13:45;43.70;;;11.25;;
30874;SDS011;17581;43.222;27.924;2024-01-07T06:16:11;23.25;;;9.07;;
30874;SDS011;17581;43.222;27.924;2024-01-07T06:18:37;33.45;;;10.68;;
30874;SDS011;17581;43.222;27.924;2024-01-07T06:21:03;44.42;;;10.77;;
30874;SDS011;17581;43.222;27.924;2024-01-07T06:23:28;33.03;;;9.07;;
30874;SDS011;17581;43.222;27.924;2024-01-07T06:25:54;31.63;;;9.75;;
30874;SDS011;17581;43.222;27.924;2024-01-07T06:28:19;32.90;;;10.30;;
30874;SDS011;17581;43.222;27.924;2024-01-07T06:30:46;24.88;;;9.55;;
30874;SDS011;17581;43.222;27.924;2024-01-07T06:33:11;38.33;;;10.10;;
30874;SDS011;17581;43.222;27.924;2024-01-07T06:35:38;17.48;;;8.23;;
30874;SDS011;17581;43.222;27.924;2024-01-07T06:38:03;27.02;;;9.77;;
30874;SDS011;17581;43.222;27.924;2024-01-07T06:40:29;31.45;;;9.18;;
30874;SDS011;17581;43.222;27.924;2024-01-07T06:42:54;24.52;;;9.35;;
30874;SDS011;17581;43.222;27.924;2024-01-07T06:45:21;32.67;;;10.75;;
30874;SDS011;17581;43.222;27.924;2024-01-07T06:47:47;53.30;;;10.95;;
30874;SDS011;17581;43.222;27.924;2024-01-07T06:50:12;32.03;;;10.30;;
30874;SDS011;17581;43.222;27.924;2024-01-07T06:52:38;84.60;;;15.25;;
30874;SDS011;17581;43.222;27.924;2024-01-07T06:55:03;24.45;;;10.25;;
30874;SDS011;17581;43.222;27.924;2024-01-07T06:57:29;30.17;;;9.15;;
30874;SDS011;17581;43.222;27.924;2024-01-07T06:59:55;32.45;;;8.63;;
30874;SDS011;17581;43.222;27.924;2024-01-07T07:02:20;29.30;;;9.10;;
30874;SDS011;17581;43.222;27.924;2024-01-07T07:04:47;37.90;;;8.93;;
30874;SDS011;17581;43.222;27.924;2024-01-07T07:07:13;24.52;;;8.95;;
30874;SDS011;17581;43.222;27.924;2024-01-07T07:09:38;40.50;;;11.27;;
30874;SDS011;17581;43.222;27.924;2024-01-07T07:12:04;23.27;;;9.30;;
30874;SDS011;17581;43.222;27.924;2024-01-07T07:14:30;22.70;;;7.70;;
30874;SDS011;17581;43.222;27.924;2024-01-07T07:16:56;24.75;;;9.30;;
30874;SDS011;17581;43.222;27.924;2024-01-07T07:19:22;26.02;;;8.02;;
30874;SDS011;17581;43.222;27.924;2024-01-07T07:21:47;25.50;;;8.68;;
30874;SDS011;17581;43.222;27.924;2024-01-07T07:24:13;28.15;;;7.60;;
30874;SDS011;17581;43.222;27.924;2024-01-07T07:26:38;54.95;;;9.38;;
30874;SDS011;17581;43.222;27.924;2024-01-07T07:29:06;16.80;;;7.47;;
30874;SDS011;17581;43.222;27.924;2024-01-07T07:31:35;116.68;;;15.10;;
30874;SDS011;17581;43.222;27.924;2024-01-07T07:34:02;26.40;;;6.82;;
30874;SDS011;17581;43.222;27.924;2024-01-07T07:36:28;29.95;;;7.18;;
30874;SDS011;17581;43.222;27.924;2024-01-07T07:38:54;43.30;;;9.88;;
30874;SDS011;17581;43.222;27.924;2024-01-07T07:41:20;63.38;;;11.15;;
30874;SDS011;17581;43.222;27.924;2024-01-07T07:43:45;22.13;;;6.45;;
30874;SDS011;17581;43.222;27.924;2024-01-07T07:46:11;23.75;;;7.05;;
30874;SDS011;17581;43.222;27.924;2024-01-07T07:48:37;14.27;;;6.53;;
30874;SDS011;17581;43.222;27.924;2024-01-07T07:51:03;17.40;;;6.03;;
30874;SDS011;17581;43.222;27.924;2024-01-07T07:53:28;20.58;;;7.15;;
30874;SDS011;17581;43.222;27.924;2024-01-07T07:55:54;20.63;;;6.32;;
30874;SDS011;17581;43.222;27.924;2024-01-07T07:58:19;23.30;;;7.65;;
30874;SDS011;17581;43.222;27.924;2024-01-07T08:00:45;18.75;;;5.82;;
30874;SDS011;17581;43.222;27.924;2024-01-07T08:03:10;33.97;;;7.20;;
30874;SDS011;17581;43.222;27.924;2024-01-07T08:05:36;36.30;;;7.47;;
30874;SDS011;17581;43.222;27.924;2024-01-07T08:08:01;11.25;;;4.95;;
30874;SDS011;17581;43.222;27.924;2024-01-07T08:10:27;15.93;;;5.60;;
30874;SDS011;17581;43.222;27.924;2024-01-07T08:12:53;21.90;;;7.03;;
30874;SDS011;17581;43.222;27.924;2024-01-07T08:15:19;19.27;;;5.22;;
30874;SDS011;17581;43.222;27.924;2024-01-07T08:17:45;13.02;;;5.47;;
30874;SDS011;17581;43.222;27.924;2024-01-07T08:20:10;26.30;;;5.90;;
30874;SDS011;17581;43.222;27.924;2024-01-07T08:22:36;14.23;;;5.07;;
30874;SDS011;17581;43.222;27.924;2024-01-07T08:25:02;13.35;;;4.63;;
30874;SDS011;17581;43.222;27.924;2024-01-07T08:27:28;7.72;;;3.97;;
30874;SDS011;17581;43.222;27.924;2024-01-07T08:29:54;20.63;;;4.82;;
30874;SDS011;17581;43.222;27.924;2024-01-07T08:32:19;21.67;;;5.88;;
30874;SDS011;17581;43.222;27.924;2024-01-07T08:34:47;18.60;;;4.95;;
30874;SDS011;17581;43.222;27.924;2024-01-07T08:37:13;15.95;;;4.70;;
30874;SDS011;17581;43.222;27.924;2024-01-07T08:39:38;20.25;;;4.35;;
30874;SDS011;17581;43.222;27.924;2024-01-07T08:42:04;28.83;;;4.30;;
30874;SDS011;17581;43.222;27.924;2024-01-07T08:44:30;10.43;;;4.07;;
30874;SDS011;17581;43.222;27.924;2024-01-07T08:46:56;29.52;;;4.68;;
30874;SDS011;17581;43.222;27.924;2024-01-07T08:49:21;24.15;;;4.50;;
30874;SDS011;17581;43.222;27.924;2024-01-07T08:51:47;12.75;;;3.60;;
30874;SDS011;17581;43.222;27.924;2024-01-07T08:54:12;11.35;;;3.67;;
30874;SDS011;17581;43.222;27.924;2024-01-07T08:56:38;8.68;;;3.38;;
30874;SDS011;17581;43.222;27.924;2024-01-07T08:59:04;15.20;;;4.75;;
30874;SDS011;17581;43.222;27.924;2024-01-07T09:01:30;11.38;;;4.03;;
30874;SDS011;17581;43.222;27.924;2024-01-07T09:03:55;22.67;;;4.07;;
30874;SDS011;17581;43.222;27.924;2024-01-07T09:06:21;23.40;;;5.35;;
30874;SDS011;17581;43.222;27.924;2024-01-07T09:08:46;10.77;;;3.60;;
30874;SDS011;17581;43.222;27.924;2024-01-07T09:11:12;21.95;;;5.95;;
30874;SDS011;17581;43.222;27.924;2024-01-07T09:13:38;19.33;;;4.60;;
30874;SDS011;17581;43.222;27.924;2024-01-07T09:16:04;16.50;;;3.45;;
30874;SDS011;17581;43.222;27.924;2024-01-07T09:18:29;17.42;;;3.97;;
30874;SDS011;17581;43.222;27.924;2024-01-07T09:20:55;26.30;;;5.25;;
30874;SDS011;17581;43.222;27.924;2024-01-07T09:23:21;29.48;;;4.70;;
30874;SDS011;17581;43.222;27.924;2024-01-07T09:25:47;28.02;;;5.57;;
30874;SDS011;17581;43.222;27.924;2024-01-07T09:28:14;27.70;;;6.63;;
30874;SDS011;17581;43.222;27.924;2024-01-07T09:30:39;30.13;;;5.28;;
30874;SDS011;17581;43.222;27.924;2024-01-07T09:33:05;34.80;;;6.63;;
30874;SDS011;17581;43.222;27.924;2024-01-07T09:35:30;50.45;;;7.95;;
30874;SDS011;17581;43.222;27.924;2024-01-07T09:37:56;25.40;;;7.13;;
30874;SDS011;17581;43.222;27.924;2024-01-07T09:40:22;25.63;;;7.18;;
30874;SDS011;17581;43.222;27.924;2024-01-07T09:42:47;26.45;;;6.00;;
30874;SDS011;17581;43.222;27.924;2024-01-07T09:45:13;42.22;;;7.20;;
30874;SDS011;17581;43.222;27.924;2024-01-07T09:47:39;39.03;;;7.97;;
30874;SDS011;17581;43.222;27.924;2024-01-07T09:50:06;44.03;;;8.43;;
30874;SDS011;17581;43.222;27.924;2024-01-07T09:52:34;47.17;;;8.85;;
30874;SDS011;17581;43.222;27.924;2024-01-07T09:55:02;95.75;;;12.88;;
30874;SDS011;17581;43.222;27.924;2024-01-07T09:57:31;89.30;;;11.30;;
30874;SDS011;17581;43.222;27.924;2024-01-07T09:59:58;47.45;;;8.88;;
30874;SDS011;17581;43.222;27.924;2024-01-07T10:02:25;52.63;;;9.02;;
30874;SDS011;17581;43.222;27.924;2024-01-07T10:04:50;33.80;;;8.40;;
30874;SDS011;17581;43.222;27.924;2024-01-07T10:07:16;48.60;;;8.80;;
30874;SDS011;17581;43.222;27.924;2024-01-07T10:09:42;41.70;;;9.07;;
30874;SDS011;17581;43.222;27.924;2024-01-07T10:12:08;37.67;;;8.13;;
30874;SDS011;17581;43.222;27.924;2024-01-07T10:14:35;43.50;;;8.77;;
30874;SDS011;17581;43.222;27.924;2024-01-07T10:17:00;69.03;;;9.50;;
30874;SDS011;17581;43.222;27.924;2024-01-07T10:19:26;54.67;;;9.30;;
30874;SDS011;17581;43.222;27.924;2024-01-07T10:22:04;51.08;;;9.77;;
30874;SDS011;17581;43.222;27.924;2024-01-07T10:24:40;61.13;;;9.68;;
30874;SDS011;17581;43.222;27.924;2024-01-07T10:27:08;44.25;;;8.35;;
30874;SDS011;17581;43.222;27.924;2024-01-07T10:29:34;55.28;;;11.23;;
30874;SDS011;17581;43.222;27.924;2024-01-07T10:31:59;81.05;;;13.70;;
30874;SDS011;17581;43.222;27.924;2024-01-07T10:34:33;63.05;;;8.95;;
30874;SDS011;17581;43.222;27.924;2024-01-07T10:37:00;52.25;;;8.55;;
30874;SDS011;17581;43.222;27.924;2024-01-07T10:39:26;68.93;;;13.27;;
30874;SDS011;17581;43.222;27.924;2024-01-07T10:41:52;67.28;;;11.77;;
30874;SDS011;17581;43.222;27.924;2024-01-07T10:44:26;45.00;;;9.60;;
30874;SDS011;17581;43.222;27.924;2024-01-07T10:46:55;65.40;;;10.43;;
30874;SDS011;17581;43.222;27.924;2024-01-07T10:49:27;66.80;;;10.40;;
30874;SDS011;17581;43.222;27.924;2024-01-07T10:54:29;67.03;;;11.27;;
30874;SDS011;17581;43.222;27.924;2024-01-07T10:56:59;65.82;;;10.13;;
30874;SDS011;17581;43.222;27.924;2024-01-07T10:59:43;67.45;;;11.68;;
30874;SDS011;17581;43.222;27.924;2024-01-07T11:02:10;54.42;;;10.98;;
30874;SDS011;17581;43.222;27.924;2024-01-07T11:10:13;59.78;;;9.48;;
30874;SDS011;17581;43.222;27.924;2024-01-07T11:12:43;44.70;;;8.60;;
30874;SDS011;17581;43.222;27.924;2024-01-07T11:15:08;59.47;;;12.27;;
30874;SDS011;17581;43.222;27.924;2024-01-07T11:20:04;91.32;;;12.27;;
30874;SDS011;17581;43.222;27.924;2024-01-07T11:22:37;75.80;;;11.82;;
30874;SDS011;17581;43.222;27.924;2024-01-07T11:25:20;61.50;;;11.02;;
30874;SDS011;17581;43.222;27.924;2024-01-07T11:27:58;87.03;;;13.10;;
30874;SDS011;17581;43.222;27.924;2024-01-07T11:30:26;73.32;;;12.82;;
30874;SDS011;17581;43.222;27.924;2024-01-07T11:32:56;49.90;;;9.30;;
30874;SDS011;17581;43.222;27.924;2024-01-07T11:35:53;74.05;;;13.20;;
30874;SDS011;17581;43.222;27.924;2024-01-07T11:38:23;71.25;;;12.05;;
30874;SDS011;17581;43.222;27.924;2024-01-07T11:40:49;69.80;;;11.00;;
30874;SDS011;17581;43.222;27.924;2024-01-07T11:43:15;62.58;;;12.52;;
30874;SDS011;17581;43.222;27.924;2024-01-07T11:45:41;58.65;;;11.50;;
30874;SDS011;17581;43.222;27.924;2024-01-07T11:48:07;60.95;;;12.45;;
30874;SDS011;17581;43.222;27.924;2024-01-07T11:50:34;65.97;;;11.15;;
30874;SDS011;17581;43.222;27.924;2024-01-07T11:53:00;75.40;;;12.00;;
30874;SDS011;17581;43.222;27.924;2024-01-07T11:55:26;65.75;;;11.32;;
30874;SDS011;17581;43.222;27.924;2024-01-07T11:57:52;47.13;;;10.13;;
30874;SDS011;17581;43.222;27.924;2024-01-07T12:00:17;52.00;;;10.80;;
30874;SDS011;17581;43.222;27.924;2024-01-07T12:02:43;52.33;;;12.32;;
30874;SDS011;17581;43.222;27.924;2024-01-07T12:05:10;54.13;;;11.00;;
30874;SDS011;17581;43.222;27.924;2024-01-07T12:07:37;47.08;;;9.85;;
30874;SDS011;17581;43.222;27.924;2024-01-07T12:10:06;56.97;;;9.98;;
30874;SDS011;17581;43.222;27.924;2024-01-07T12:12:32;58.08;;;11.52;;
30874;SDS011;17581;43.222;27.924;2024-01-07T12:14:58;59.03;;;10.43;;
30874;SDS011;17581;43.222;27.924;2024-01-07T12:17:24;61.22;;;10.55;;
30874;SDS011;17581;43.222;27.924;2024-01-07T12:19:49;87.53;;;12.20;;
30874;SDS011;17581;43.222;27.924;2024-01-07T12:22:17;56.47;;;10.02;;
30874;SDS011;17581;43.222;27.924;2024-01-07T12:24:42;56.35;;;10.30;;
30874;SDS011;17581;43.222;27.924;2024-01-07T12:27:09;73.10;;;10.68;;
30874;SDS011;17581;43.222;27.924;2024-01-07T12:29:34;52.85;;;9.68;;
30874;SDS011;17581;43.222;27.924;2024-01-07T12:32:00;56.50;;;11.07;;
30874;SDS011;17581;43.222;27.924;2024-01-07T12:34:27;60.17;;;10.52;;
30874;SDS011;17581;43.222;27.924;2024-01-07T12:36:53;49.53;;;9.02;;
30874;SDS011;17581;43.222;27.924;2024-01-07T12:39:20;54.17;;;11.77;;
30874;SDS011;17581;43.222;27.924;2024-01-07T12:41:45;65.00;;;11.50;;
30874;SDS011;17581;43.222;27.924;2024-01-07T12:44:12;68.93;;;10.77;;
30874;SDS011;17581;43.222;27.924;2024-01-07T12:46:37;71.20;;;11.05;;
30874;SDS011;17581;43.222;27.924;2024-01-07T12:49:03;75.72;;;12.55;;
30874;SDS011;17581;43.222;27.924;2024-01-07T12:51:28;67.57;;;9.50;;
30874;SDS011;17581;43.222;27.924;2024-01-07T12:53:54;64.57;;;9.40;;
30874;SDS011;17581;43.222;27.924;2024-01-07T12:56:21;45.75;;;11.38;;
30874;SDS011;17581;43.222;27.924;2024-01-07T12:58:47;68.13;;;10.43;;
30874;SDS011;17581;43.222;27.924;2024-01-07T13:01:12;62.47;;;10.30;;
30874;SDS011;17581;43.222;27.924;2024-01-07T13:03:39;69.25;;;12.90;;
30874;SDS011;17581;43.222;27.924;2024-01-07T13:06:05;75.60;;;14.25;;
30874;SDS011;17581;43.222;27.924;2024-01-07T13:08:31;85.57;;;12.68;;
30874;SDS011;17581;43.222;27.924;2024-01-07T13:10:58;56.08;;;10.45;;
30874;SDS011;17581;43.222;27.924;2024-01-07T13:13:25;50.83;;;10.57;;
30874;SDS011;17581;43.222;27.924;2024-01-07T13:15:51;66.82;;;13.25;;
30874;SDS011;17581;43.222;27.924;2024-01-07T13:18:16;78.45;;;13.25;;
30874;SDS011;17581;43.222;27.924;2024-01-07T13:20:42;68.60;;;13.23;;
30874;SDS011;17581;43.222;27.924;2024-01-07T13:23:08;71.15;;;11.25;;
30874;SDS011;17581;43.222;27.924;2024-01-07T13:25:33;65.78;;;11.38;;
30874;SDS011;17581;43.222;27.924;2024-01-07T13:27:59;59.95;;;10.45;;
30874;SDS011;17581;43.222;27.924;2024-01-07T13:30:24;87.20;;;13.63;;
30874;SDS011;17581;43.222;27.924;2024-01-07T13:32:51;52.83;;;10.52;;
30874;SDS011;17581;43.222;27.924;2024-01-07T13:35:21;44.50;;;9.52;;
30874;SDS011;17581;43.222;27.924;2024-01-07T13:37:47;64.78;;;9.80;;
30874;SDS011;17581;43.222;27.924;2024-01-07T13:40:13;87.63;;;15.15;;
30874;SDS011;17581;43.222;27.924;2024-01-07T13:42:39;64.22;;;11.07;;
30874;SDS011;17581;43.222;27.924;2024-01-07T13:45:05;59.88;;;10.55;;
30874;SDS011;17581;43.222;27.924;2024-01-07T13:47:31;59.63;;;11.82;;
30874;SDS011;17581;43.222;27.924;2024-01-07T13:49:56;54.58;;;11.18;;
30874;SDS011;17581;43.222;27.924;2024-01-07T13:52:22;62.95;;;14.10;;
30874;SDS011;17581;43.222;27.924;2024-01-07T13:54:48;72.70;;;13.73;;
30874;SDS011;17581;43.222;27.924;2024-01-07T13:57:13;68.22;;;12.55;;
30874;SDS011;17581;43.222;27.924;2024-01-07T13:59:39;78.55;;;13.77;;
30874;SDS011;17581;43.222;27.924;2024-01-07T14:02:06;62.40;;;9.82;;
30874;SDS011;17581;43.222;27.924;2024-01-07T14:04:33;55.38;;;9.60;;
30874;SDS011;17581;43.222;27.924;2024-01-07T14:06:58;116.97;;;15.05;;
30874;SDS011;17581;43.222;27.924;2024-01-07T14:09:24;62.33;;;11.75;;
30874;SDS011;17581;43.222;27.924;2024-01-07T14:11:50;49.72;;;10.95;;
30874;SDS011;17581;43.222;27.924;2024-01-07T14:14:16;65.10;;;9.85;;
30874;SDS011;17581;43.222;27.924;2024-01-07T14:16:41;55.63;;;12.73;;
30874;SDS011;17581;43.222;27.924;2024-01-07T14:19:07;77.65;;;12.57;;
30874;SDS011;17581;43.222;27.924;2024-01-07T14:21:32;79.57;;;12.27;;